Time;durP1;ratioP1;P1;durP2;ratioP2;P2;SDS_P1;SDS_P2;PMS_P1;PMS_P2;Temp;Humidity;BMP_temperature;BMP_pressure;BME280_temperature;BME280_humidity;BME280_pressure;Samples;Min_cycle;Max_cycle;Signal;HPM_P1;HPM_P2
2022/01/29 00:00:27;;;;;;;10.55;5.82;;;;;;;6.09;93.35;102647.16;5033811;27;20041;-73
2022/01/29 00:02:54;;;;;;;14.45;6.30;;;;;;;6.09;93.35;102639.34;5029933;27;20053;-73
2022/01/29 00:05:21;;;;;;;11.75;6.57;;;;;;;6.06;93.46;102642.03;5027534;27;20049;-74
2022/01/29 00:07:47;;;;;;;18.13;8.10;;;;;;;6.07;93.47;102630.69;5028638;27;20691;-74
2022/01/29 00:10:14;;;;;;;17.58;7.18;;;;;;;6.11;93.59;102621.88;5036625;27;20175;-72
2022/01/29 00:12:42;;;;;;;18.10;7.88;;;;;;;6.12;93.23;102626.16;5035128;27;20102;-73
2022/01/29 00:15:11;;;;;;;22.90;6.75;;;;;;;6.15;93.28;102642.63;5030104;27;20047;-75
2022/01/29 00:17:37;;;;;;;26.45;7.38;;;;;;;6.16;93.48;102648.69;5025101;27;20142;-72
2022/01/29 00:20:05;;;;;;;19.88;8.05;;;;;;;6.18;93.68;102646.88;5023591;27;20049;-73
2022/01/29 00:22:31;;;;;;;17.70;8.05;;;;;;;6.20;93.41;102650.28;5027911;27;20052;-73
2022/01/29 00:24:59;;;;;;;7.38;4.70;;;;;;;6.22;93.22;102638.03;5024588;27;20152;-73
2022/01/29 00:27:30;;;;;;;11.60;7.97;;;;;;;6.20;93.48;102648.53;5020583;27;20045;-72
2022/01/29 00:29:58;;;;;;;15.20;7.70;;;;;;;6.21;93.32;102641.53;5027223;27;20042;-72
2022/01/29 00:32:27;;;;;;;17.85;8.63;;;;;;;6.21;93.54;102641.53;5024039;27;20085;-73
2022/01/29 00:34:53;;;;;;;11.52;5.28;;;;;;;6.24;93.40;102636.25;5011254;27;20061;-73
2022/01/29 00:37:21;;;;;;;14.60;6.80;;;;;;;6.23;93.52;102635.41;5008490;27;20074;-75
2022/01/29 00:39:48;;;;;;;17.92;7.88;;;;;;;6.24;93.54;102625.81;5011358;27;21256;-72
2022/01/29 00:42:15;;;;;;;10.82;7.03;;;;;;;6.24;93.71;102626.63;5009984;27;20071;-73
2022/01/29 00:44:41;;;;;;;12.55;6.57;;;;;;;6.23;93.76;102621.47;5002650;27;20053;-73
2022/01/29 00:47:08;;;;;;;13.07;7.40;;;;;;;6.21;93.58;102603.28;5006528;27;20078;-73
2022/01/29 00:49:38;;;;;;;13.68;7.57;;;;;;;6.19;93.76;102612.91;5009344;27;20046;-72
2022/01/29 00:52:05;;;;;;;14.93;7.50;;;;;;;6.21;94.30;102605.88;5010577;27;20156;-72
2022/01/29 00:54:31;;;;;;;16.77;6.95;;;;;;;6.22;93.73;102588.47;5010717;27;20130;-73
2022/01/29 00:56:58;;;;;;;13.52;7.57;;;;;;;6.23;93.89;102587.56;5008923;27;20239;-74
2022/01/29 00:59:25;;;;;;;13.30;7.47;;;;;;;6.23;94.07;102584.94;5011136;27;20048;-73
2022/01/29 01:01:52;;;;;;;15.30;6.75;;;;;;;6.23;93.82;102572.78;5019843;27;20486;-73
2022/01/29 01:04:21;;;;;;;10.27;4.63;;;;;;;6.25;94.00;102559.66;5011084;27;20049;-73
2022/01/29 01:06:49;;;;;;;15.50;8.10;;;;;;;6.25;93.65;102560.50;5013808;27;20052;-74
2022/01/29 01:09:16;;;;;;;15.23;6.82;;;;;;;6.23;94.04;102551.03;5012774;27;20045;-72
2022/01/29 01:11:44;;;;;;;15.05;8.70;;;;;;;6.21;94.71;102543.25;5011632;27;20054;-73
2022/01/29 01:14:10;;;;;;;5.60;2.85;;;;;;;6.23;94.76;102545.81;5016758;27;20052;-73
2022/01/29 01:16:37;;;;;;;7.47;4.50;;;;;;;6.23;94.67;102548.41;5009702;27;20555;-73
2022/01/29 01:19:04;;;;;;;12.23;4.18;;;;;;;6.24;94.56;102542.31;5016955;27;20042;-72
2022/01/29 01:21:32;;;;;;;12.00;5.20;;;;;;;6.22;94.48;102533.66;5014059;27;20058;-73
2022/01/29 01:23:59;;;;;;;24.63;6.90;;;;;;;6.20;94.88;102532.84;5022051;27;20045;-73
2022/01/29 01:26:26;;;;;;;8.13;6.03;;;;;;;6.20;95.12;102540.69;5023613;27;20045;-72
2022/01/29 01:28:52;;;;;;;14.68;8.52;;;;;;;6.17;95.10;102531.19;5025218;27;20053;-75
2022/01/29 01:31:19;;;;;;;24.13;8.77;;;;;;;6.16;95.26;102528.66;5027158;27;20497;-74
2022/01/29 01:33:47;;;;;;;13.63;6.30;;;;;;;6.15;95.60;102524.34;5034424;27;20029;-73
2022/01/29 01:36:16;;;;;;;7.97;4.75;;;;;;;6.20;95.64;102506.75;5027007;27;20167;-74
2022/01/29 01:38:48;;;;;;;10.90;6.43;;;;;;;6.14;95.77;102518.28;5009472;27;20106;-73
2022/01/29 01:41:22;;;;;;;10.52;6.97;;;;;;;6.14;95.82;102520.88;5013261;27;20422;-73
2022/01/29 01:43:49;;;;;;;14.55;5.78;;;;;;;6.14;95.85;102509.56;5016146;27;20064;-72
2022/01/29 01:46:16;;;;;;;20.65;7.53;;;;;;;6.18;95.64;102505.97;5005261;27;20110;-73
2022/01/29 01:48:43;;;;;;;20.35;10.07;;;;;;;6.19;95.58;102502.47;5008346;27;20077;-73
2022/01/29 01:51:10;;;;;;;21.02;8.13;;;;;;;6.26;94.95;102509.19;5010509;27;20098;-73
2022/01/29 01:53:37;;;;;;;10.70;5.35;;;;;;;6.29;94.90;102501.22;5007715;27;20078;-74
2022/01/29 01:56:03;;;;;;;15.18;6.03;;;;;;;6.27;95.27;102490.03;5006579;27;20045;-75
2022/01/29 01:58:31;;;;;;;20.40;8.13;;;;;;;6.29;94.71;102488.19;5009040;27;20049;-73
2022/01/29 02:00:58;;;;;;;17.30;9.07;;;;;;;6.29;95.34;102493.41;5009757;27;20045;-74
2022/01/29 02:03:25;;;;;;;11.80;6.32;;;;;;;6.30;95.23;102492.50;5011950;27;20061;-73
2022/01/29 02:05:53;;;;;;;11.70;7.25;;;;;;;6.33;95.14;102495.03;5010514;27;20322;-72
2022/01/29 02:08:19;;;;;;;9.50;5.32;;;;;;;6.29;95.43;102483.84;5012278;27;20058;-73
2022/01/29 02:10:48;;;;;;;8.90;4.97;;;;;;;6.28;95.53;102476.06;5007463;28;20104;-72
2022/01/29 02:13:14;;;;;;;12.65;6.38;;;;;;;6.25;95.90;102474.41;5009100;27;20048;-72
2022/01/29 02:15:42;;;;;;;21.13;6.82;;;;;;;6.24;96.01;102475.28;5103022;27;20103;-73
2022/01/29 02:18:13;;;;;;;12.68;5.93;;;;;;;6.28;95.62;102463.03;5007450;27;20127;-71
2022/01/29 02:20:41;;;;;;;14.52;5.50;;;;;;;6.26;95.76;102463.06;5015758;27;20053;-73
2022/01/29 02:23:09;;;;;;;19.17;7.50;;;;;;;6.24;95.60;102457.03;5015255;27;20065;-71
2022/01/29 02:25:40;;;;;;;12.40;4.13;;;;;;;6.25;96.04;102448.28;5009255;27;20049;-73
2022/01/29 02:28:08;;;;;;;9.30;4.80;;;;;;;6.26;95.69;102449.16;5010157;27;20053;-74
2022/01/29 02:30:37;;;;;;;6.75;4.45;;;;;;;6.27;95.85;102448.28;5013151;27;20045;-75
2022/01/29 02:33:06;;;;;;;17.08;5.07;;;;;;;6.30;95.41;102438.56;5008162;27;20068;-71
2022/01/29 02:35:33;;;;;;;14.77;8.10;;;;;;;6.26;95.53;102436.13;5012789;27;20046;-73
2022/01/29 02:38:02;;;;;;;17.90;8.48;;;;;;;6.28;95.53;102442.16;5012728;27;20065;-74
2022/01/29 02:40:35;;;;;;;17.27;6.60;;;;;;;6.26;95.30;102428.28;5010771;27;20046;-74
2022/01/29 02:43:10;;;;;;;15.45;4.85;;;;;;;6.28;95.10;102426.50;5007099;27;20057;-72
2022/01/29 02:45:38;;;;;;;9.98;5.55;;;;;;;6.26;95.95;102430.91;5009445;27;20049;-75
2022/01/29 02:48:05;;;;;;;17.30;7.32;;;;;;;6.23;95.37;102426.66;5006378;27;20064;-73
2022/01/29 02:50:31;;;;;;;28.33;7.18;;;;;;;6.22;96.06;102422.34;5013587;27;20050;-73
2022/01/29 02:52:58;;;;;;;17.73;7.05;;;;;;;6.19;96.14;102421.59;5018001;27;20056;-74
2022/01/29 02:55:25;;;;;;;13.18;5.03;;;;;;;6.17;96.31;102410.34;5017653;27;20068;-74
2022/01/29 02:57:53;;;;;;;7.70;5.28;;;;;;;6.17;96.44;102410.34;5009645;27;20146;-73
2022/01/29 03:00:19;;;;;;;9.98;6.68;;;;;;;6.17;96.05;102410.34;5009025;27;20374;-73
2022/01/29 03:02:46;;;;;;;5.68;3.30;;;;;;;6.15;96.17;102402.59;5004458;27;20107;-75
2022/01/29 03:05:13;;;;;;;8.93;5.43;;;;;;;6.15;96.12;102401.72;5010205;27;20039;-73
2022/01/29 03:07:39;;;;;;;14.75;6.82;;;;;;;6.13;96.46;102398.28;5003370;27;20150;-73
2022/01/29 03:10:07;;;;;;;19.55;6.65;;;;;;;6.13;96.60;102387.84;5006487;27;20102;-73
2022/01/29 03:12:34;;;;;;;16.80;6.80;;;;;;;6.12;96.85;102399.19;5004451;28;20045;-73
2022/01/29 03:15:02;;;;;;;10.13;5.80;;;;;;;6.14;96.72;102394.78;5010095;27;20073;-73
2022/01/29 03:17:28;;;;;;;13.02;6.00;;;;;;;6.11;97.04;102389.69;5004051;28;20420;-72
2022/01/29 03:19:55;;;;;;;25.35;6.50;;;;;;;6.11;96.83;102387.91;5012249;28;20072;-73
2022/01/29 03:22:22;;;;;;;11.70;5.25;;;;;;;6.15;96.68;102388.66;5008987;28;20841;-73
2022/01/29 03:24:49;;;;;;;6.88;4.13;;;;;;;6.14;96.82;102385.22;5018025;28;20092;-75
2022/01/29 03:27:15;;;;;;;16.92;7.25;;;;;;;6.11;96.72;102379.25;5009410;28;20147;-74
2022/01/29 03:29:42;;;;;;;8.75;5.20;;;;;;;6.16;97.23;102382.53;5011592;28;20049;-75
2022/01/29 03:32:12;;;;;;;7.68;4.20;;;;;;;6.15;97.41;102381.72;5008466;27;20049;-72
2022/01/29 03:34:39;;;;;;;10.70;4.00;;;;;;;6.17;97.31;102374.66;5007244;28;20045;-72
2022/01/29 03:37:05;;;;;;;11.98;4.65;;;;;;;6.16;97.61;102377.31;5009440;28;20120;-72
2022/01/29 03:39:34;;;;;;;11.45;6.32;;;;;;;6.15;97.37;102368.66;5010958;28;20049;-72
2022/01/29 03:42:04;;;;;;;21.00;7.38;;;;;;;6.14;97.99;102361.75;5009611;28;20048;-73
2022/01/29 03:44:32;;;;;;;7.68;4.30;;;;;;;6.16;98.18;102359.06;5010853;28;20211;-72
2022/01/29 03:46:58;;;;;;;26.02;7.82;;;;;;;6.13;98.28;102357.44;5011292;28;20070;-73
2022/01/29 03:49:26;;;;;;;10.02;6.07;;;;;;;6.13;98.59;102356.56;5010175;28;20042;-73
2022/01/29 03:51:53;;;;;;;16.13;6.63;;;;;;;6.14;98.79;102351.31;5007415;28;20065;-72
2022/01/29 03:54:19;;;;;;;15.88;7.78;;;;;;;6.14;98.79;102347.81;5006140;28;20065;-72
2022/01/29 03:56:46;;;;;;;9.90;5.50;;;;;;;6.13;99.35;102338.28;5011039;28;20128;-72
2022/01/29 03:59:12;;;;;;;14.15;6.22;;;;;;;6.14;98.98;102340.00;5010981;28;20057;-72
2022/01/29 04:01:39;;;;;;;8.88;4.65;;;;;;;6.13;99.17;102336.56;5011986;28;20454;-72
2022/01/29 04:04:07;;;;;;;17.27;6.20;;;;;;;6.13;99.33;102330.47;5013426;28;20049;-73
2022/01/29 04:06:35;;;;;;;4.90;3.08;;;;;;;6.18;99.82;102333.78;5023996;28;20137;-73
2022/01/29 04:09:05;;;;;;;12.68;4.68;;;;;;;6.16;99.70;102325.97;5030068;28;20138;-73
2022/01/29 04:11:34;;;;;;;7.15;4.38;;;;;;;6.19;99.40;102322.44;5030765;28;20052;-74
2022/01/29 04:14:01;;;;;;;6.40;5.13;;;;;;;6.21;99.79;102325.81;5012249;28;20138;-73
2022/01/29 04:16:27;;;;;;;14.30;5.55;;;;;;;6.26;99.64;102334.34;5006396;28;20042;-73
2022/01/29 04:18:54;;;;;;;9.55;4.22;;;;;;;6.25;99.29;102324.81;5008945;27;20093;-73
2022/01/29 04:21:21;;;;;;;9.93;6.32;;;;;;;6.29;99.29;102329.00;5007069;28;20508;-73
2022/01/29 04:23:49;;;;;;;13.38;7.25;;;;;;;6.30;99.22;102322.88;5008810;28;20071;-73
2022/01/29 04:26:15;;;;;;;7.15;4.53;;;;;;;6.35;99.25;102331.41;5020596;27;20048;-74
2022/01/29 04:28:44;;;;;;;7.18;4.85;;;;;;;6.33;99.31;102323.63;5010515;28;20048;-73
2022/01/29 04:31:15;;;;;;;7.93;4.80;;;;;;;6.35;99.39;102320.97;5011873;28;20037;-74
2022/01/29 04:33:42;;;;;;;6.68;4.32;;;;;;;6.36;99.45;102326.13;5008379;28;20045;-75
2022/01/29 04:36:09;;;;;;;8.80;3.70;;;;;;;6.38;98.87;102321.72;5010950;28;20038;-73
2022/01/29 04:38:36;;;;;;;6.18;4.40;;;;;;;6.39;98.97;102319.03;5013210;27;20046;-72
2022/01/29 04:41:06;;;;;;;8.48;5.00;;;;;;;6.41;98.85;102324.19;5007910;28;20098;-72
2022/01/29 04:43:33;;;;;;;7.40;3.85;;;;;;;6.44;98.74;102322.31;5009335;28;20049;-74
2022/01/29 04:46:00;;;;;;;9.85;3.92;;;;;;;6.47;98.50;102305.72;5008724;28;20045;-72
2022/01/29 04:48:28;;;;;;;6.45;3.65;;;;;;;6.46;98.40;102315.28;5011375;27;20057;-72
2022/01/29 04:50:54;;;;;;;11.75;5.15;;;;;;;6.48;98.80;102320.47;5010078;28;20046;-74
2022/01/29 04:53:21;;;;;;;7.13;3.45;;;;;;;6.49;98.43;102311.69;5009620;28;20110;-74
2022/01/29 04:55:48;;;;;;;6.97;3.90;;;;;;;6.49;97.83;102307.34;5011895;27;20046;-73
2022/01/29 04:58:16;;;;;;;10.00;5.00;;;;;;;6.50;98.10;102311.66;5010403;27;20041;-73
2022/01/29 05:00:42;;;;;;;5.57;4.10;;;;;;;6.51;98.11;102299.44;5004508;27;20120;-74
2022/01/29 05:03:11;;;;;;;2.92;1.83;;;;;;;6.54;98.21;102305.41;5008466;27;20059;-73
2022/01/29 05:05:37;;;;;;;9.45;4.03;;;;;;;6.52;97.96;102293.31;5014048;27;20049;-73
2022/01/29 05:08:05;;;;;;;7.50;4.30;;;;;;;6.51;98.31;102289.00;5010487;27;20048;-73
2022/01/29 05:10:33;;;;;;;7.60;3.80;;;;;;;6.54;98.51;102297.56;5010282;27;20038;-72
2022/01/29 05:13:03;;;;;;;5.03;3.25;;;;;;;6.55;98.28;102294.06;5015735;27;20045;-73
2022/01/29 05:15:38;;;;;;;6.85;3.63;;;;;;;6.58;98.09;102288.72;5012103;27;20114;-72
2022/01/29 05:29:14;;;;;;;4.07;2.78;;;;;;;6.60;98.53;102265.16;5013931;27;20102;-73
2022/01/29 05:31:42;;;;;;;9.35;3.65;;;;;;;6.64;97.92;102267.59;5011333;27;20060;-74
2022/01/29 05:34:09;;;;;;;5.65;3.05;;;;;;;6.63;98.38;102258.06;5011571;27;20057;-73
2022/01/29 05:36:35;;;;;;;5.53;2.95;;;;;;;6.65;98.55;102264.06;5016335;27;20136;-72
2022/01/29 05:39:02;;;;;;;13.10;3.50;;;;;;;6.65;98.59;102256.25;5012395;27;20046;-73
2022/01/29 05:41:29;;;;;;;6.60;2.85;;;;;;;6.65;98.78;102251.03;5010189;27;20053;-74
2022/01/29 05:43:56;;;;;;;6.57;3.25;;;;;;;6.68;98.44;102256.13;5009479;27;20045;-72
2022/01/29 05:46:24;;;;;;;7.82;4.10;;;;;;;6.69;98.72;102263.03;5010176;27;20042;-72
2022/01/29 05:48:52;;;;;;;6.97;3.72;;;;;;;6.69;99.05;102260.41;5010212;27;20077;-71
2022/01/29 05:51:19;;;;;;;7.00;3.75;;;;;;;6.71;98.75;102269.06;5009100;27;20033;-71
2022/01/29 05:53:46;;;;;;;9.30;4.20;;;;;;;6.71;98.71;102263.00;5005961;27;20038;-72
2022/01/29 05:56:13;;;;;;;10.05;4.43;;;;;;;6.71;99.02;102253.38;5009578;28;20048;-72
2022/01/29 05:58:39;;;;;;;9.05;5.43;;;;;;;6.71;99.01;102253.38;5008459;28;20055;-71
2022/01/29 06:01:06;;;;;;;9.50;4.03;;;;;;;6.73;99.03;102255.97;5004257;27;20043;-72
2022/01/29 06:03:33;;;;;;;8.93;4.35;;;;;;;6.74;99.20;102258.50;5006586;27;20046;-72
2022/01/29 06:06:01;;;;;;;10.27;5.07;;;;;;;6.74;99.16;102250.66;5007596;27;20067;-73
2022/01/29 06:08:27;;;;;;;11.82;4.93;;;;;;;6.76;99.37;102247.97;5009323;27;20041;-72
2022/01/29 06:10:54;;;;;;;15.70;5.28;;;;;;;6.77;99.81;102253.13;5008695;27;20041;-73
2022/01/29 06:13:20;;;;;;;10.98;3.70;;;;;;;6.79;99.33;102251.31;5010759;27;20483;-72
2022/01/29 06:15:50;;;;;;;9.00;4.00;;;;;;;6.84;99.47;102248.53;5008133;27;20146;-73
2022/01/29 06:18:19;;;;;;;7.10;3.42;;;;;;;6.83;99.77;102245.06;5008487;27;20050;-72
2022/01/29 06:20:47;;;;;;;4.82;3.10;;;;;;;6.82;99.56;102229.44;5009973;27;20072;-72
2022/01/29 06:23:17;;;;;;;6.30;3.70;;;;;;;6.85;99.63;102230.19;5012465;27;20666;-73
2022/01/29 06:25:45;;;;;;;13.27;7.15;;;;;;;6.85;99.56;102230.19;5013564;27;20124;-73
2022/01/29 06:28:12;;;;;;;9.90;5.50;;;;;;;6.84;99.72;102227.63;5014411;27;20132;-72
2022/01/29 06:30:39;;;;;;;6.50;3.63;;;;;;;6.89;99.93;102221.31;5012180;27;20146;-72
2022/01/29 06:33:10;;;;;;;8.43;4.03;;;;;;;6.87;99.88;102230.97;5009308;28;20053;-73
2022/01/29 06:35:39;;;;;;;9.80;5.82;;;;;;;6.91;99.81;102229.06;5017844;27;20560;-73
2022/01/29 06:38:07;;;;;;;7.63;5.07;;;;;;;6.89;100.00;102228.31;5017423;27;20049;-74
2022/01/29 06:40:36;;;;;;;8.80;5.30;;;;;;;6.93;99.97;102241.19;5019518;27;20778;-73
2022/01/29 06:43:04;;;;;;;11.05;4.13;;;;;;;6.92;99.92;102228.16;5037085;27;20033;-71
2022/01/29 06:45:31;;;;;;;12.18;5.82;;;;;;;6.93;99.90;102220.28;5034559;27;20097;-73
2022/01/29 06:47:58;;;;;;;11.85;5.95;;;;;;;6.97;100.00;102223.63;5031049;28;20104;-73
2022/01/29 06:50:25;;;;;;;7.03;3.72;;;;;;;6.98;100.00;102215.72;5011118;28;20042;-74
2022/01/29 06:52:52;;;;;;;8.88;4.68;;;;;;;6.95;100.00;102215.84;5005464;28;20060;-74
2022/01/29 06:55:18;;;;;;;9.25;5.15;;;;;;;6.98;100.00;102212.25;5005611;27;20520;-72
2022/01/29 06:57:48;;;;;;;7.72;5.38;;;;;;;7.02;100.00;102217.28;5007012;27;20075;-73
2022/01/29 07:00:17;;;;;;;8.02;4.32;;;;;;;7.04;100.00;102210.22;5006153;28;20041;-72
2022/01/29 07:02:44;;;;;;;10.52;5.70;;;;;;;7.05;99.92;102206.72;5011974;27;20129;-72
2022/01/29 07:05:12;;;;;;;14.18;5.45;;;;;;;7.09;99.96;102194.38;5009157;27;20119;-74
2022/01/29 07:07:39;;;;;;;7.75;4.88;;;;;;;7.10;99.87;102201.28;5007255;27;20126;-73
2022/01/29 07:10:07;;;;;;;14.20;5.28;;;;;;;7.13;99.88;102191.56;5005840;27;20053;-72
2022/01/29 07:12:33;;;;;;;8.88;4.50;;;;;;;7.11;99.54;102196.00;5010647;27;20034;-71
2022/01/29 07:15:01;;;;;;;9.30;4.88;;;;;;;7.14;99.85;102190.66;5004812;28;20121;-71
2022/01/29 07:17:28;;;;;;;12.75;6.22;;;;;;;7.17;99.86;102193.16;5011145;28;20042;-72
2022/01/29 07:19:55;;;;;;;8.27;5.20;;;;;;;7.21;99.83;102202.53;5010229;28;20038;-75
2022/01/29 07:22:22;;;;;;;10.70;5.30;;;;;;;7.25;99.66;102204.13;5008966;28;20064;-74
2022/01/29 07:24:49;;;;;;;12.13;6.50;;;;;;;7.28;99.92;102215.28;5007012;28;20050;-72
2022/01/29 07:27:16;;;;;;;6.93;5.07;;;;;;;7.31;99.70;102203.84;5011322;28;20546;-72
2022/01/29 07:29:43;;;;;;;15.10;5.90;;;;;;;7.32;100.00;102197.72;5008778;28;20042;-72
2022/01/29 07:32:11;;;;;;;8.63;5.63;;;;;;;7.35;99.78;102200.19;5010685;28;20053;-75
2022/01/29 07:34:38;;;;;;;12.32;7.28;;;;;;;7.35;99.78;102193.22;5012350;28;20415;-73
2022/01/29 07:37:05;;;;;;;6.10;3.72;;;;;;;7.36;99.20;102189.69;5013407;28;20124;-74
2022/01/29 07:39:33;;;;;;;9.20;5.97;;;;;;;7.42;99.18;102191.19;5016074;28;20050;-73
2022/01/29 07:41:59;;;;;;;7.72;4.95;;;;;;;7.43;99.65;102177.16;5019522;28;20177;-73
2022/01/29 07:44:26;;;;;;;11.90;5.68;;;;;;;7.46;99.61;102175.31;5020589;28;20061;-73
2022/01/29 07:46:53;;;;;;;8.73;5.07;;;;;;;7.49;99.63;102169.09;5016209;28;20094;-73
2022/01/29 07:49:21;;;;;;;15.20;6.22;;;;;;;7.50;99.58;102176.00;5017410;28;20037;-73
2022/01/29 07:51:48;;;;;;;8.30;5.95;;;;;;;7.55;99.48;102174.03;5026928;28;20118;-72
2022/01/29 07:54:14;;;;;;;14.13;7.28;;;;;;;7.57;99.40;102166.97;5014726;28;20055;-73
2022/01/29 07:56:43;;;;;;;7.22;4.80;;;;;;;7.60;98.61;102167.69;5018852;28;20049;-73
2022/01/29 07:59:10;;;;;;;12.48;6.45;;;;;;;7.61;98.56;102165.91;5018217;27;20118;-72
2022/01/29 08:01:36;;;;;;;10.80;5.55;;;;;;;7.66;98.54;102171.81;5017760;27;20072;-73
2022/01/29 08:04:03;;;;;;;7.78;4.75;;;;;;;7.70;98.29;102165.50;5020726;27;20127;-72
2022/01/29 08:06:32;;;;;;;7.90;5.75;;;;;;;7.69;98.95;102162.06;5018555;27;20052;-73
2022/01/29 08:08:59;;;;;;;12.63;5.68;;;;;;;7.74;98.36;102157.44;5017852;28;20037;-73
2022/01/29 08:11:25;;;;;;;15.73;6.28;;;;;;;7.76;99.03;102155.63;5018473;28;20098;-72
2022/01/29 08:13:52;;;;;;;24.08;5.95;;;;;;;7.77;98.79;102156.47;5018853;28;20050;-75
2022/01/29 08:16:19;;;;;;;7.50;5.00;;;;;;;7.77;98.66;102156.47;5017414;28;20116;-72
2022/01/29 08:18:46;;;;;;;11.10;6.88;;;;;;;7.79;99.22;102144.16;5018251;28;20059;-73
2022/01/29 08:21:13;;;;;;;4.00;3.40;;;;;;;7.86;99.05;102149.06;5014490;28;20065;-73
2022/01/29 08:23:41;;;;;;;9.40;4.90;;;;;;;7.86;99.64;102145.56;5018619;28;20053;-74
2022/01/29 08:26:08;;;;;;;11.20;5.32;;;;;;;7.87;98.86;102147.28;5016022;28;20076;-73
2022/01/29 08:28:35;;;;;;;8.65;4.97;;;;;;;7.91;99.24;102135.78;5019803;27;20090;-72
2022/01/29 08:31:02;;;;;;;10.27;5.53;;;;;;;7.93;99.02;102136.53;5014651;28;20060;-72
2022/01/29 08:33:29;;;;;;;10.52;5.57;;;;;;;7.97;99.73;102133.69;5017887;28;20041;-72
2022/01/29 08:35:57;;;;;;;11.05;6.45;;;;;;;8.00;99.00;102138.81;5017875;28;20067;-73
2022/01/29 08:38:23;;;;;;;9.40;5.38;;;;;;;8.06;99.68;102139.38;5015351;28;20069;-74
2022/01/29 08:40:52;;;;;;;6.50;4.43;;;;;;;8.10;98.64;102135.69;5017589;28;20050;-73
2022/01/29 08:43:19;;;;;;;8.95;4.93;;;;;;;8.16;99.29;102140.69;5016771;28;20090;-74
2022/01/29 08:45:47;;;;;;;5.50;3.17;;;;;;;8.19;98.82;102135.28;5019135;28;20049;-73
2022/01/29 08:48:14;;;;;;;5.85;3.78;;;;;;;8.23;99.22;102131.59;5017916;28;20045;-73
2022/01/29 08:50:41;;;;;;;5.93;4.32;;;;;;;8.29;99.44;102133.09;5018772;27;20049;-74
2022/01/29 08:53:07;;;;;;;7.35;4.22;;;;;;;8.36;98.33;102122.22;5018666;28;20049;-73
2022/01/29 08:55:36;;;;;;;8.85;5.53;;;;;;;8.44;98.12;102114.84;5017959;28;20416;-73
2022/01/29 08:58:05;;;;;;;5.50;3.63;;;;;;;8.50;97.68;102125.03;5028136;27;20054;-72
2022/01/29 09:00:36;;;;;;;12.63;5.50;;;;;;;8.57;98.09;102115.97;5018628;27;20049;-72
2022/01/29 09:03:03;;;;;;;7.57;5.15;;;;;;;8.65;97.09;102116.44;5016455;28;20041;-73
2022/01/29 09:05:30;;;;;;;8.40;4.82;;;;;;;8.69;96.92;102110.09;5026129;27;20053;-73
2022/01/29 09:07:57;;;;;;;8.82;5.53;;;;;;;8.75;97.20;102109.78;5023464;27;20049;-72
2022/01/29 09:10:26;;;;;;;8.40;4.70;;;;;;;8.79;95.92;102108.72;5021652;27;20121;-74
2022/01/29 09:12:53;;;;;;;9.27;5.07;;;;;;;8.80;96.79;102105.19;5017800;27;20041;-74
2022/01/29 09:15:22;;;;;;;8.52;4.70;;;;;;;8.80;96.97;102113.06;5029601;27;20069;-71
2022/01/29 09:17:49;;;;;;;4.90;3.63;;;;;;;8.78;96.41;102112.28;5031011;27;20041;-70
2022/01/29 09:20:16;;;;;;;10.88;4.97;;;;;;;8.82;96.51;102095.50;5024316;27;20076;-70
2022/01/29 09:22:42;;;;;;;11.50;5.80;;;;;;;8.86;96.79;102100.47;5037528;28;20097;-71
2022/01/29 09:25:09;;;;;;;12.30;5.75;;;;;;;8.91;96.33;102089.75;5025102;28;20057;-70
2022/01/29 09:27:36;;;;;;;6.35;3.80;;;;;;;8.93;95.30;102072.19;5045468;27;20141;-70
2022/01/29 09:30:03;;;;;;;10.82;5.95;;;;;;;8.93;95.43;102086.16;5041992;27;20806;-71
2022/01/29 09:32:32;;;;;;;5.72;3.95;;;;;;;8.94;96.23;102069.50;5021867;27;20077;-74
2022/01/29 09:34:58;;;;;;;6.75;4.68;;;;;;;8.97;95.80;102068.50;5019385;28;20056;-74
2022/01/29 09:37:25;;;;;;;6.13;3.90;;;;;;;9.06;96.15;102075.88;5016101;27;20041;-73
2022/01/29 09:39:53;;;;;;;6.88;3.92;;;;;;;9.18;95.51;102083.09;5015132;28;20034;-74
2022/01/29 09:42:20;;;;;;;8.10;4.18;;;;;;;9.25;94.57;102069.59;5013814;28;20058;-73
2022/01/29 09:44:48;;;;;;;9.63;5.80;;;;;;;9.24;94.32;102083.63;5010625;28;20041;-73
2022/01/29 09:47:16;;;;;;;5.78;3.90;;;;;;;9.20;95.08;102083.88;5014962;28;20080;-72
2022/01/29 09:49:44;;;;;;;9.05;5.18;;;;;;;9.18;95.07;102096.22;5014488;28;20034;-73
2022/01/29 09:52:11;;;;;;;10.18;5.07;;;;;;;9.19;95.22;102105.78;5011671;28;20050;-74
2022/01/29 09:54:38;;;;;;;10.77;4.63;;;;;;;9.16;95.00;102103.28;5014160;27;20033;-75
2022/01/29 09:57:05;;;;;;;9.90;5.85;;;;;;;9.18;94.94;102093.59;5011161;27;20049;-73
2022/01/29 09:59:32;;;;;;;9.85;4.22;;;;;;;9.16;96.01;102098.06;5010688;28;20045;-72
2022/01/29 10:01:58;;;;;;;6.22;4.82;;;;;;;9.20;96.28;102089.94;5004952;28;20153;-71
2022/01/29 10:04:25;;;;;;;10.93;3.80;;;;;;;9.18;96.29;102088.34;5012656;28;20049;-74
2022/01/29 10:07:15;;;;;;;5.13;2.67;;;;;;;9.14;96.42;102077.16;5115271;27;20403;-74
2022/01/29 10:09:41;;;;;;;8.38;4.00;;;;;;;9.10;97.06;102090.50;5014171;28;20064;-73
2022/01/29 10:12:23;;;;;;;7.82;4.68;;;;;;;9.08;97.47;102087.13;5016128;27;20061;-75
2022/01/29 10:14:55;;;;;;;4.43;2.90;;;;;;;9.10;97.41;102093.13;5013596;28;20046;-74
2022/01/29 10:17:40;;;;;;;7.32;3.53;;;;;;;9.13;98.44;102079.88;5015081;28;20065;-74
2022/01/29 10:20:12;;;;;;;8.80;3.35;;;;;;;9.16;97.57;102079.69;5012245;27;20107;-73
2022/01/29 10:22:40;;;;;;;9.43;5.88;;;;;;;9.13;98.30;102083.34;5013796;28;20054;-73
2022/01/29 10:25:14;;;;;;;7.10;4.15;;;;;;;9.13;98.94;102085.97;5015240;28;20041;-74
2022/01/29 10:28:07;;;;;;;4.40;3.00;;;;;;;9.12;99.05;102088.66;5016298;27;20033;-73
2022/01/29 10:30:38;;;;;;;9.50;4.75;;;;;;;9.17;99.21;102081.41;5011091;28;20133;-73
2022/01/29 10:33:19;;;;;;;4.57;3.63;;;;;;;9.19;98.42;102069.91;5013991;28;20042;-73
2022/01/29 10:35:48;;;;;;;7.38;3.90;;;;;;;9.29;98.34;102080.78;5014105;27;20126;-72
2022/01/29 10:38:23;;;;;;;3.88;2.58;;;;;;;9.33;98.48;102063.94;5014675;28;20042;-74
2022/01/29 10:41:13;;;;;;;7.28;4.13;;;;;;;9.40;98.69;102057.47;5017926;27;20053;-74
2022/01/29 10:43:58;;;;;;;7.85;4.03;;;;;;;9.41;98.49;102059.13;5013255;28;20042;-73
2022/01/29 10:46:26;;;;;;;11.90;4.90;;;;;;;9.44;98.00;102057.19;5011976;28;20049;-75
2022/01/29 10:48:52;;;;;;;10.25;4.45;;;;;;;9.51;97.60;102053.34;5009870;28;20049;-74
2022/01/29 10:51:19;;;;;;;7.78;3.85;;;;;;;9.61;98.24;102036.13;5015097;27;20061;-74
2022/01/29 10:53:47;;;;;;;4.22;3.13;;;;;;;9.64;98.22;102028.94;5018452;27;20856;-73
2022/01/29 10:56:14;;;;;;;4.80;3.58;;;;;;;9.61;97.72;102028.25;5012656;28;20056;-73
2022/01/29 10:58:42;;;;;;;9.77;3.92;;;;;;;9.63;98.06;102011.53;5015406;28;20083;-71
2022/01/29 11:01:13;;;;;;;4.30;3.08;;;;;;;9.65;97.60;102011.44;5016274;27;20048;-72
2022/01/29 11:03:39;;;;;;;7.10;3.17;;;;;;;9.66;97.13;102003.47;5016255;28;20042;-74
2022/01/29 11:06:09;;;;;;;4.70;3.10;;;;;;;9.70;98.01;101999.75;5018575;28;20048;-73
2022/01/29 11:08:36;;;;;;;6.20;3.67;;;;;;;9.82;96.85;101988.56;5018213;28;20076;-75
2022/01/29 11:11:04;;;;;;;3.92;2.92;;;;;;;10.03;96.36;101982.16;5017556;27;20173;-73
2022/01/29 11:13:31;;;;;;;5.22;3.10;;;;;;;10.23;94.96;101981.84;5021523;27;20077;-72
2022/01/29 11:15:58;;;;;;;5.18;3.38;;;;;;;10.33;93.96;101975.13;5016628;28;20467;-73
2022/01/29 11:18:26;;;;;;;3.47;2.55;;;;;;;10.35;93.60;101981.13;5021804;28;20049;-76
2022/01/29 11:20:53;;;;;;;8.57;3.60;;;;;;;10.41;93.58;101986.00;5018910;28;20128;-73
2022/01/29 11:23:21;;;;;;;3.75;2.38;;;;;;;10.38;93.53;101983.59;5014803;28;20116;-73
2022/01/29 11:25:47;;;;;;;4.40;2.80;;;;;;;10.39;93.24;101974.75;5014630;28;20042;-75
2022/01/29 11:28:16;;;;;;;4.55;2.47;;;;;;;10.40;93.29;101971.19;5014680;28;20046;-74
2022/01/29 11:30:45;;;;;;;6.32;3.67;;;;;;;10.31;92.73;101965.63;5016106;28;20122;-73
2022/01/29 11:33:11;;;;;;;3.63;2.47;;;;;;;10.31;93.44;101952.50;5014994;28;20038;-73
2022/01/29 11:35:51;;;;;;;3.47;2.47;;;;;;;10.34;92.40;101947.91;5015809;28;20137;-73
2022/01/29 11:38:28;;;;;;;4.82;3.00;;;;;;;10.32;92.67;101947.16;5018478;28;20033;-72
2022/01/29 11:40:57;;;;;;;2.42;1.77;;;;;;;10.23;91.88;101941.59;5017370;28;20041;-74
2022/01/29 11:43:27;;;;;;;4.85;1.63;;;;;;;10.20;92.92;101937.38;5018741;28;20563;-72